Time;durP1;ratioP1;P1;durP2;ratioP2;P2;SDS_P1;SDS_P2;PMS_P1;PMS_P2;Temp;Humidity;BMP_temperature;BMP_pressure;BME280_temperature;BME280_humidity;BME280_pressure;Samples;Min_cycle;Max_cycle;Signal;HPM_P1;HPM_P2
2023/01/11 00:04:29;;;;;;;3.15;1.20;;;;;;;4.00;100.00;98284.47;15295010;19;20837;-77
2023/01/11 00:09:53;;;;;;;2.10;0.90;;;;;;;3.98;100.00;98291.78;15290695;19;20007;-78
2023/01/11 00:15:19;;;;;;;3.65;1.45;;;;;;;3.95;100.00;98295.50;15286298;19;20006;-77
2023/01/11 00:20:54;;;;;;;2.10;1.10;;;;;;;3.88;100.00;98280.16;15291647;19;20032;-77
2023/01/11 00:26:18;;;;;;;3.65;1.30;;;;;;;3.82;100.00;98276.16;15288366;19;20018;-78
2023/01/11 00:31:43;;;;;;;3.92;1.27;;;;;;;3.76;100.00;98256.19;15296360;19;20003;-78
2023/01/11 00:37:10;;;;;;;3.38;1.20;;;;;;;3.75;100.00;98266.94;15296243;19;20010;-78
2023/01/11 00:48:21;;;;;;;4.65;1.20;;;;;;;3.72;100.00;98216.56;15292309;19;20019;-76
2023/01/11 00:53:50;;;;;;;3.28;1.20;;;;;;;3.70;100.00;98203.38;15289973;19;20051;-77
2023/01/11 00:59:15;;;;;;;4.03;1.45;;;;;;;3.73;100.00;98202.25;15299199;19;20017;-75
2023/01/11 01:04:41;;;;;;;3.03;1.10;;;;;;;3.71;100.00;98186.41;15296031;19;20010;-77
2023/01/11 01:10:10;;;;;;;2.42;1.00;;;;;;;3.69;100.00;98191.00;15302440;19;20091;-77
2023/01/11 01:15:36;;;;;;;3.20;1.15;;;;;;;3.70;100.00;98204.19;15294880;19;20051;-77
2023/01/11 01:21:07;;;;;;;2.67;1.17;;;;;;;3.73;100.00;98199.59;15291492;19;20018;-77
2023/01/11 01:26:34;;;;;;;2.70;1.07;;;;;;;3.76;100.00;98191.38;15301594;19;20076;-77
2023/01/11 01:32:00;;;;;;;2.25;1.05;;;;;;;3.78;100.00;98195.59;15302138;19;20010;-77
2023/01/11 01:37:25;;;;;;;3.08;1.02;;;;;;;3.81;100.00;98200.69;15300189;19;20540;-77
2023/01/11 01:42:53;;;;;;;2.85;1.10;;;;;;;3.83;100.00;98203.22;15278550;19;20019;-57
2023/01/11 01:48:22;;;;;;;2.83;1.20;;;;;;;3.83;100.00;98192.56;15277959;19;20846;-57
2023/01/11 01:53:53;;;;;;;2.90;1.20;;;;;;;3.90;100.00;98182.25;15289511;19;20555;-57
2023/01/11 01:59:23;;;;;;;2.67;1.10;;;;;;;3.92;100.00;98164.31;15289285;19;20018;-58
2023/01/11 02:04:50;;;;;;;2.20;1.00;;;;;;;3.95;100.00;98158.75;14769235;19;10000452;-55
2023/01/11 02:10:18;;;;;;;4.65;1.10;;;;;;;4.01;100.00;98145.75;15288269;19;20018;-58
2023/01/11 02:15:45;;;;;;;2.35;0.98;;;;;;;4.05;100.00;98126.84;15286445;19;20021;-57
2023/01/11 02:21:24;;;;;;;2.90;0.98;;;;;;;4.11;100.00;98115.66;15279608;19;20007;-57
2023/01/11 02:27:24;;;;;;;2.15;1.10;;;;;;;4.14;100.00;98118.09;15283757;19;20318;-56
2023/01/11 02:33:00;;;;;;;2.10;1.00;;;;;;;4.19;100.00;98102.53;15284335;19;20354;-55
2023/01/11 02:38:36;;;;;;;2.22;0.98;;;;;;;4.23;100.00;98097.81;15277722;19;20434;-57
2023/01/11 02:50:02;;;;;;;1.83;1.00;;;;;;;4.27;100.00;98100.09;15285387;19;20077;-56
2023/01/11 02:55:32;;;;;;;2.58;0.90;;;;;;;4.28;100.00;98096.44;15277428;19;20025;-58
2023/01/11 03:00:57;;;;;;;3.92;1.30;;;;;;;4.32;100.00;98105.88;15281299;19;20018;-55
2023/01/11 03:06:29;;;;;;;2.17;1.02;;;;;;;4.31;100.00;98106.00;15275743;19;20018;-58
2023/01/11 03:17:59;;;;;;;2.00;0.95;;;;;;;4.31;100.00;98096.16;15279991;19;20608;-58
2023/01/11 03:23:35;;;;;;;2.03;0.90;;;;;;;4.32;100.00;98100.53;15276193;19;20092;-56
2023/01/11 03:29:08;;;;;;;3.05;1.10;;;;;;;4.35;100.00;98090.59;15275952;19;20011;-55
2023/01/11 03:34:36;;;;;;;3.08;1.10;;;;;;;4.34;100.00;98083.56;15279850;19;20779;-56
2023/01/11 03:40:09;;;;;;;2.38;1.00;;;;;;;4.31;100.00;98090.00;15267639;19;20323;-57
2023/01/11 03:45:37;;;;;;;2.28;1.10;;;;;;;4.31;100.00;98080.16;15274450;19;20356;-58
2023/01/11 03:51:05;;;;;;;2.28;1.13;;;;;;;4.33;100.00;98074.72;15277154;19;20473;-58
2023/01/11 03:56:38;;;;;;;3.38;1.10;;;;;;;4.39;100.00;98071.53;15270576;19;20078;-58
2023/01/11 04:02:04;;;;;;;2.17;1.00;;;;;;;4.41;100.00;98055.41;15274390;19;20014;-56
2023/01/11 04:07:28;;;;;;;1.63;0.93;;;;;;;4.43;100.00;98066.75;15278836;19;20018;-58
2023/01/11 04:12:58;;;;;;;1.58;0.90;;;;;;;4.45;100.00;98055.00;15271539;19;20035;-58
2023/01/11 04:18:22;;;;;;;2.72;1.10;;;;;;;4.48;100.00;98065.38;15274745;19;20383;-57
2023/01/11 04:23:47;;;;;;;2.00;1.10;;;;;;;4.50;100.00;98062.63;15276033;19;20479;-57
2023/01/11 04:29:14;;;;;;;2.00;0.90;;;;;;;4.51;100.00;98053.63;15284209;19;20388;-58
2023/01/11 04:34:39;;;;;;;1.52;0.95;;;;;;;4.53;100.00;98040.97;15294647;19;20014;-56
2023/01/11 04:40:03;;;;;;;1.67;0.85;;;;;;;4.54;100.00;98032.00;15294905;19;20015;-55
2023/01/11 04:45:32;;;;;;;2.42;1.00;;;;;;;4.55;100.00;98031.03;15288025;19;20024;-58
2023/01/11 04:50:56;;;;;;;2.33;1.00;;;;;;;4.50;100.00;98046.59;15293614;19;20110;-56
2023/01/11 04:56:21;;;;;;;2.05;0.98;;;;;;;4.51;100.00;98029.63;15291954;19;20014;-58
2023/01/11 05:01:48;;;;;;;1.15;0.82;;;;;;;4.51;100.00;98026.97;15283210;19;20022;-55
2023/01/11 05:07:15;;;;;;;2.38;1.10;;;;;;;4.52;100.00;98019.78;15290618;19;20871;-58
2023/01/11 05:12:39;;;;;;;1.48;1.00;;;;;;;4.52;100.00;98023.31;15292036;19;20018;-57
2023/01/11 05:18:07;;;;;;;2.58;0.80;;;;;;;4.52;100.00;98019.78;15283768;19;20020;-53
2023/01/11 05:23:31;;;;;;;2.10;0.95;;;;;;;4.56;100.00;98018.56;15292117;19;20373;-54
2023/01/11 05:28:57;;;;;;;2.15;1.10;;;;;;;4.59;100.00;98012.94;15289620;19;20010;-55
2023/01/11 05:34:24;;;;;;;1.55;0.90;;;;;;;4.60;100.00;98015.47;15283522;19;20016;-56
2023/01/11 05:39:49;;;;;;;0.98;0.73;;;;;;;4.60;100.00;97994.13;15288681;19;20015;-57
2023/01/11 05:45:32;;;;;;;1.15;0.63;;;;;;;4.59;100.00;98011.13;15286605;19;20074;-58
2023/01/11 05:51:00;;;;;;;2.05;0.70;;;;;;;4.62;100.00;98008.19;15283422;19;20011;-58
2023/01/11 05:56:26;;;;;;;1.00;0.57;;;;;;;4.65;100.00;98012.41;15288407;19;20018;-51
2023/01/11 06:01:50;;;;;;;0.60;0.43;;;;;;;4.68;100.00;98020.16;15287196;19;20359;-55
2023/01/11 06:07:18;;;;;;;1.42;0.70;;;;;;;4.70;100.00;98017.34;15280874;19;20014;-56
2023/01/11 06:12:42;;;;;;;0.40;0.40;;;;;;;4.74;100.00;97992.09;15288756;19;20475;-56
2023/01/11 06:18:07;;;;;;;1.02;0.47;;;;;;;4.79;100.00;97984.50;15284735;19;20030;-55
2023/01/11 06:23:36;;;;;;;0.65;0.45;;;;;;;4.81;100.00;98005.75;15276519;19;20021;-55
2023/01/11 06:28:55;;;;;;;0.40;0.38;;;;;;;4.83;100.00;97991.28;15284510;19;20021;-55
2023/01/11 06:34:20;;;;;;;1.00;0.40;;;;;;;4.92;100.00;97997.63;15287070;19;20090;-53
2023/01/11 06:39:47;;;;;;;1.05;0.40;;;;;;;4.97;100.00;98002.56;15282213;19;20014;-52
2023/01/11 06:45:20;;;;;;;0.68;0.30;;;;;;;5.00;100.00;98003.13;15281972;19;20011;-52
2023/01/11 06:50:45;;;;;;;0.70;0.40;;;;;;;5.05;100.00;98000.91;15284569;19;20014;-54
2023/01/11 06:56:12;;;;;;;0.95;0.38;;;;;;;5.14;100.00;97993.88;15280193;19;20014;-54
2023/01/11 07:01:36;;;;;;;0.55;0.30;;;;;;;5.23;100.00;97995.72;15284015;19;20431;-53
2023/01/11 07:07:01;;;;;;;0.88;0.60;;;;;;;5.35;100.00;97984.94;15285023;19;20025;-53
2023/01/11 07:12:28;;;;;;;0.40;0.40;;;;;;;5.40;100.00;97988.88;15275887;19;20014;-52
2023/01/11 07:17:53;;;;;;;1.60;0.30;;;;;;;5.49;100.00;97972.97;15281056;19;20350;-55
2023/01/11 07:23:18;;;;;;;0.75;0.30;;;;;;;5.52;100.00;97970.03;15279202;19;20351;-56
2023/01/11 07:28:45;;;;;;;0.75;0.43;;;;;;;5.57;100.00;97977.63;15275358;19;20018;-54
2023/01/11 07:34:09;;;;;;;182.40;16.92;;;;;;;5.60;100.00;97990.69;15282414;19;20117;-56
2023/01/11 07:39:35;;;;;;;0.80;0.30;;;;;;;5.62;100.00;97981.56;15284755;19;20042;-56
2023/01/11 07:45:10;;;;;;;0.20;0.20;;;;;;;5.66;100.00;97982.13;15273857;19;20336;-55
2023/01/11 07:50:35;;;;;;;0.70;0.32;;;;;;;5.69;100.00;97979.19;15283622;19;20017;-53
2023/01/11 07:56:03;;;;;;;0.47;0.30;;;;;;;5.73;100.00;97985.06;15278895;19;20018;-58
2023/01/11 08:01:30;;;;;;;0.50;0.20;;;;;;;5.75;100.00;97975.91;15271058;19;20015;-51
2023/01/11 08:06:55;;;;;;;1.20;0.30;;;;;;;5.80;100.00;97975.50;15278142;19;20022;-54
2023/01/11 08:17:59;;;;;;;1.48;0.38;;;;;;;5.90;100.00;97980.84;15273673;19;20020;-57
2023/01/11 08:23:24;;;;;;;4.32;1.00;;;;;;;5.97;100.00;97976.59;15275170;19;20062;-59
2023/01/11 08:28:42;;;;;;;0.20;0.20;;;;;;;6.06;100.00;97975.75;15278155;19;20039;-56
2023/01/11 08:34:09;;;;;;;0.20;0.20;;;;;;;6.11;100.00;97956.63;15276874;19;20021;-54
2023/01/11 08:39:34;;;;;;;0.20;0.20;;;;;;;6.19;100.00;97959.44;15278632;19;20078;-54
2023/01/11 08:45:05;;;;;;;0.20;0.20;;;;;;;6.24;100.00;97946.44;15272715;19;20023;-56
2023/01/11 08:50:32;;;;;;;0.97;0.33;;;;;;;6.34;100.00;97940.25;15277090;19;20777;-54
2023/01/11 08:55:58;;;;;;;0.20;0.20;;;;;;;6.40;100.00;97935.16;15276979;19;20014;-54
2023/01/11 09:01:23;;;;;;;0.30;0.30;;;;;;;6.46;100.00;97945.25;15274058;19;20028;-54
2023/01/11 09:06:51;;;;;;;0.20;0.20;;;;;;;6.52;100.00;97943.00;15278810;19;20483;-57
2023/01/11 09:12:15;;;;;;;0.20;0.20;;;;;;;6.57;100.00;97925.50;15276399;19;20018;-57
2023/01/11 09:17:40;;;;;;;0.25;0.22;;;;;;;6.62;100.00;97941.94;15290138;19;20727;-57
2023/01/11 09:23:08;;;;;;;0.65;0.17;;;;;;;6.67;100.00;97929.97;15289135;19;20011;-57
2023/01/11 09:28:33;;;;;;;0.20;0.20;;;;;;;6.74;100.00;97928.34;15289464;19;20042;-57
2023/01/11 09:33:58;;;;;;;0.17;0.15;;;;;;;6.81;100.00;97942.00;15282129;19;20046;-53
2023/01/11 09:39:27;;;;;;;0.75;0.20;;;;;;;6.89;100.00;97924.19;15290197;19;20364;-54
2023/01/11 09:44:56;;;;;;;0.30;0.30;;;;;;;7.02;100.00;97928.34;15284453;19;20882;-53
2023/01/11 09:50:25;;;;;;;0.20;0.20;;;;;;;7.12;100.00;97917.53;15285373;19;20070;-58
2023/01/11 09:55:55;;;;;;;0.43;0.30;;;;;;;7.25;100.00;97934.94;15289266;19;20460;-52
2023/01/11 10:01:28;;;;;;;0.30;0.30;;;;;;;7.37;100.00;97911.44;15289201;19;20390;-55
2023/01/11 10:07:13;;;;;;;0.40;0.30;;;;;;;7.44;100.00;97910.84;15283039;19;20135;-53
2023/01/11 10:12:51;;;;;;;3.67;0.50;;;;;;;7.50;100.00;97907.53;15289244;19;20013;-54
2023/01/11 10:18:52;;;;;;;34.95;4.63;;;;;;;7.55;100.00;97905.25;15259830;19;20014;-57
2023/01/11 10:24:42;;;;;;;0.10;0.10;;;;;;;7.59;100.00;97906.59;15276133;19;20014;-54
2023/01/11 10:30:44;;;;;;;0.10;0.10;;;;;;;7.52;100.00;97902.84;15289354;19;20077;-55
2023/01/11 10:36:29;;;;;;;1.48;0.20;;;;;;;7.40;100.00;97903.09;15284949;19;20106;-59
2023/01/11 10:42:03;;;;;;;0.85;0.40;;;;;;;7.31;100.00;97904.03;15279017;19;20019;-59
2023/01/11 10:47:40;;;;;;;0.25;0.25;;;;;;;7.23;100.00;97903.97;15284482;19;20017;-51
2023/01/11 10:53:15;;;;;;;0.20;0.20;;;;;;;7.20;100.00;97912.28;15283947;19;20015;-51
2023/01/11 10:59:07;;;;;;;0.52;0.28;;;;;;;7.14;100.00;97912.88;15276534;19;20018;-53
2023/01/11 11:04:40;;;;;;;;;;;;;;;7.06;100.00;97929.72;15279321;19;20018;-54
2023/01/11 11:10:14;;;;;;;0.45;0.40;;;;;;;7.03;100.00;97920.16;15280253;19;19914;-59
2023/01/11 11:15:46;;;;;;;0.40;0.40;;;;;;;6.98;100.00;97921.59;15280573;19;20018;-58
2023/01/11 11:21:24;;;;;;;0.65;0.40;;;;;;;6.98;100.00;97918.91;15282112;19;20020;-60
2023/01/11 11:26:55;;;;;;;0.55;0.30;;;;;;;6.94;100.00;97918.38;15274130;19;20018;-54
2023/01/11 11:32:24;;;;;;;0.20;0.10;;;;;;;6.97;100.00;97910.06;15280623;19;20614;-58
2023/01/11 11:37:55;;;;;;;0.20;0.20;;;;;;;6.98;100.00;97922.44;15276497;19;20403;-59
2023/01/11 11:43:23;;;;;;;1.25;0.30;;;;;;;7.00;100.00;97925.81;15273781;19;20030;-53
2023/01/11 11:48:48;;;;;;;0.20;0.20;;;;;;;7.03;100.00;97917.47;15280290;19;20020;-59
2023/01/11 11:54:23;;;;;;;0.20;0.20;;;;;;;7.07;100.00;97918.00;15281949;19;20258;-58
2023/01/11 11:59:57;;;;;;;0.30;0.20;;;;;;;7.09;100.00;97932.09;15274804;19;20468;-78
2023/01/11 12:05:22;;;;;;;0.20;0.20;;;;;;;7.11;100.00;97931.97;15279882;19;20023;-77
2023/01/11 12:10:56;;;;;;;0.20;0.20;;;;;;;7.12;100.00;97918.41;15282276;19;21113;-77
2023/01/11 12:16:23;;;;;;;0.20;0.20;;;;;;;7.13;100.00;97929.94;15283100;19;20082;-78
2023/01/11 12:21:47;;;;;;;0.28;0.25;;;;;;;7.14;100.00;97937.00;15282042;19;20386;-77
2023/01/11 12:27:27;;;;;;;0.60;0.30;;;;;;;7.12;100.00;97936.28;15286711;19;20011;-78
2023/01/11 12:33:19;;;;;;;0.73;0.33;;;;;;;7.13;100.00;97940.66;15284547;19;20022;-78
2023/01/11 12:38:55;;;;;;;2.30;0.50;;;;;;;7.13;100.00;97951.38;15288956;19;20019;-78
2023/01/11 12:44:36;;;;;;;0.65;0.22;;;;;;;7.14;100.00;97937.00;15281332;19;20334;-78
2023/01/11 12:50:10;;;;;;;0.15;0.15;;;;;;;7.17;100.00;97942.06;15282483;19;20734;-78
2023/01/11 12:55:44;;;;;;;0.25;0.25;;;;;;;7.15;100.00;97960.97;15296574;19;20015;-78
2023/01/11 13:01:35;;;;;;;1.23;0.35;;;;;;;7.18;100.00;97943.75;15295886;19;20035;-78
2023/01/11 13:07:07;;;;;;;;;;;;;;;7.19;100.00;97948.94;15293511;19;20025;-77
2023/01/11 13:12:41;;;;;;;0.55;0.32;;;;;;;7.19;100.00;97956.16;15287754;19;19922;-77
2023/01/11 13:18:15;;;;;;;0.63;0.40;;;;;;;7.19;100.00;97956.16;15289252;19;20365;-79
2023/01/11 13:23:45;;;;;;;0.50;0.40;;;;;;;7.18;100.00;97957.13;15292242;19;20023;-78
2023/01/11 13:29:13;;;;;;;0.88;0.50;;;;;;;7.18;100.00;97966.00;15299216;19;20774;-76
2023/01/11 13:34:44;;;;;;;0.40;0.40;;;;;;;7.17;100.00;97974.22;15292583;19;20020;-77
2023/01/11 13:40:16;;;;;;;0.65;0.40;;;;;;;7.17;100.00;97979.56;15288227;19;20547;-76
2023/01/11 13:45:46;;;;;;;0.50;0.50;;;;;;;7.19;100.00;97982.94;15288847;19;20026;-77
2023/01/11 13:51:26;;;;;;;0.40;0.40;;;;;;;7.20;100.00;97984.63;15290656;19;20082;-76
2023/01/11 13:56:57;;;;;;;1.00;0.60;;;;;;;7.20;100.00;97992.66;15288269;19;20031;-80
2023/01/11 14:02:31;;;;;;;0.63;0.63;;;;;;;7.21;100.00;97986.31;15284310;19;20018;-76
2023/01/11 14:08:24;;;;;;;0.50;0.50;;;;;;;7.23;100.00;97995.06;15242578;19;20011;-76
2023/01/11 14:14:16;;;;;;;2.67;1.10;;;;;;;7.24;100.00;98005.59;15290199;19;20033;-75
2023/01/11 14:19:46;;;;;;;;;;;;;;;7.24;100.00;98010.09;15290407;19;20438;-76
2023/01/11 14:25:22;;;;;;;1.48;0.90;;;;;;;7.28;100.00;98024.91;15306295;19;19925;-75
2023/01/11 14:31:11;;;;;;;1.80;1.60;;;;;;;7.30;100.00;98024.75;15308499;19;20022;-76
2023/01/11 14:37:04;;;;;;;1.80;1.42;;;;;;;7.32;100.00;98031.66;15288734;19;20018;-76
2023/01/11 14:43:04;;;;;;;1.35;1.25;;;;;;;7.30;100.00;98033.63;15289495;19;20010;-76
2023/01/11 14:48:38;;;;;;;1.10;1.08;;;;;;;7.31;100.00;98038.00;15315538;19;20029;-76
2023/01/11 14:54:08;;;;;;;1.75;1.52;;;;;;;7.32;100.00;98041.50;15289581;19;20022;-76
2023/01/11 14:59:48;;;;;;;1.58;1.00;;;;;;;7.32;100.00;98044.19;15286741;19;20093;-77
2023/01/11 15:05:35;;;;;;;1.48;1.35;;;;;;;7.32;100.00;98057.59;15294870;19;20030;-79
2023/01/11 15:11:08;;;;;;;1.55;1.30;;;;;;;7.30;100.00;98057.75;15298299;19;20047;-76
2023/01/11 15:22:39;;;;;;;1.50;1.40;;;;;;;7.25;100.00;98076.09;15293181;19;20364;-76
2023/01/11 15:28:26;;;;;;;1.70;1.60;;;;;;;7.23;100.00;98078.09;15287173;19;20018;-76
2023/01/11 15:33:57;;;;;;;1.48;1.33;;;;;;;7.20;100.00;98089.13;15287417;19;20010;-77
2023/01/11 15:39:41;;;;;;;1.40;1.30;;;;;;;7.19;100.00;98100.81;15292846;19;20023;-80
2023/01/11 15:45:26;;;;;;;1.95;1.20;;;;;;;7.17;100.00;98100.13;15293878;19;20423;-76
2023/01/11 15:51:19;;;;;;;1.05;0.90;;;;;;;7.15;100.00;98107.44;15295405;19;20018;-78
2023/01/11 15:57:01;;;;;;;0.88;0.88;;;;;;;7.13;100.00;98104.94;15292486;19;20024;-78
2023/01/11 16:03:16;;;;;;;1.00;0.68;;;;;;;7.11;100.00;98098.03;15288767;19;20023;-78
2023/01/11 16:08:52;;;;;;;0.30;0.30;;;;;;;7.14;100.00;98103.09;15294188;19;20038;-78
2023/01/11 16:14:39;;;;;;;0.65;0.38;;;;;;;7.12;100.00;98103.25;15294127;19;20879;-79
2023/01/11 16:20:05;;;;;;;0.60;0.50;;;;;;;7.12;100.00;98099.69;15288508;19;20414;-79
2023/01/11 16:25:38;;;;;;;0.85;0.30;;;;;;;7.12;100.00;98111.28;15304797;19;20501;-79
2023/01/11 16:31:06;;;;;;;0.45;0.40;;;;;;;7.11;100.00;98116.78;15307491;19;20074;-78
2023/01/11 16:36:40;;;;;;;0.80;0.60;;;;;;;7.07;100.00;98125.13;15306973;19;20020;-78
2023/01/11 16:42:11;;;;;;;1.73;0.60;;;;;;;7.03;100.00;98131.75;15299697;19;20023;-77
2023/01/11 16:47:36;;;;;;;0.68;0.40;;;;;;;7.05;100.00;98129.78;15299622;19;20050;-78
2023/01/11 16:53:03;;;;;;;0.98;0.60;;;;;;;7.05;100.00;98132.44;15292550;19;20383;-77
2023/01/11 16:58:34;;;;;;;1.80;0.70;;;;;;;7.15;100.00;98110.13;15296790;19;20027;-77
2023/01/11 17:04:02;;;;;;;0.55;0.52;;;;;;;7.27;100.00;98097.41;15294659;19;20477;-77
2023/01/11 17:09:33;;;;;;;1.35;0.70;;;;;;;7.40;100.00;98084.50;15292168;19;20014;-76
2023/01/11 17:15:16;;;;;;;2.92;1.00;;;;;;;7.44;100.00;98085.03;15296536;19;20021;-78
2023/01/11 17:20:41;;;;;;;1.40;0.65;;;;;;;7.56;100.00;98091.88;15292484;19;20018;-78
2023/01/11 17:26:06;;;;;;;2.38;0.80;;;;;;;7.62;100.00;98095.81;15302617;19;20025;-78
2023/01/11 17:31:38;;;;;;;1.52;0.88;;;;;;;7.46;100.00;98101.81;15299375;19;20094;-77
2023/01/11 17:37:09;;;;;;;1.80;0.80;;;;;;;7.33;100.00;98105.69;15305960;19;20018;-77
2023/01/11 17:48:21;;;;;;;2.17;1.00;;;;;;;7.13;100.00;98134.41;15306997;19;20015;-77
2023/01/11 17:53:50;;;;;;;2.45;0.95;;;;;;;7.01;100.00;98133.72;15300179;19;20033;-77
2023/01/11 17:59:27;;;;;;;2.03;1.00;;;;;;;6.94;100.00;98137.97;15300938;19;20015;-78
2023/01/11 18:05:01;;;;;;;2.15;1.00;;;;;;;6.85;100.00;98157.59;15297730;19;20286;-77
2023/01/11 18:10:29;;;;;;;1.20;0.90;;;;;;;6.74;100.00;98151.44;15297833;19;20006;-78
2023/01/11 18:15:54;;;;;;;1.98;0.85;;;;;;;6.62;100.00;98163.28;15302145;19;20023;-78
2023/01/11 18:21:58;;;;;;;2.35;1.00;;;;;;;6.49;100.00;98174.25;15297781;19;20041;-79
2023/01/11 18:27:32;;;;;;;3.22;1.10;;;;;;;6.45;100.00;98183.56;15287927;19;20105;-80
2023/01/11 18:32:59;;;;;;;2.90;1.30;;;;;;;6.43;100.00;98198.91;15302385;19;20033;-80
2023/01/11 18:38:34;;;;;;;3.30;0.90;;;;;;;6.44;100.00;98193.41;15300387;19;20018;-78
2023/01/11 18:44:00;;;;;;;1.95;0.98;;;;;;;6.45;100.00;98213.84;15310993;19;20051;-79
2023/01/11 18:49:28;;;;;;;2.65;1.02;;;;;;;6.50;100.00;98205.38;15319069;19;20027;-77
2023/01/11 18:54:57;;;;;;;2.65;1.00;;;;;;;6.49;100.00;98203.69;15330142;19;20082;-78
2023/01/11 19:00:30;;;;;;;3.38;1.05;;;;;;;6.41;100.00;98209.75;15289520;19;20081;-77
2023/01/11 19:05:56;;;;;;;3.10;1.13;;;;;;;6.40;100.00;98213.44;15288313;19;20030;-78
2023/01/11 19:11:24;;;;;;;4.30;1.30;;;;;;;6.46;100.00;98202.16;15299420;19;20014;-79
2023/01/11 19:16:50;;;;;;;5.43;1.20;;;;;;;6.30;100.00;98201.84;15304731;19;20463;-79
2023/01/11 19:22:15;;;;;;;5.05;1.38;;;;;;;6.30;100.00;98209.88;15298532;19;20035;-79
2023/01/11 19:27:47;;;;;;;5.10;1.20;;;;;;;6.15;100.00;98212.09;15293224;19;20411;-79
2023/01/11 19:33:13;;;;;;;5.85;1.50;;;;;;;6.13;100.00;98216.75;15330327;19;20022;-78
2023/01/11 19:39:01;;;;;;;5.40;1.45;;;;;;;6.03;100.00;98211.41;15345962;19;19995;-79
2023/01/11 19:44:33;;;;;;;6.28;1.50;;;;;;;6.01;100.00;98224.06;15337732;19;20029;-77
2023/01/11 19:49:59;;;;;;;6.13;1.60;;;;;;;5.94;100.00;98220.22;15335608;19;20056;-82
2023/01/11 19:55:29;;;;;;;5.85;1.60;;;;;;;5.86;100.00;98224.41;15325332;19;20377;-79
2023/01/11 20:01:06;;;;;;;5.40;1.48;;;;;;;5.86;100.00;98229.75;15289942;19;20032;-78
2023/01/11 20:06:31;;;;;;;5.38;1.58;;;;;;;5.73;100.00;98228.31;15290180;19;20022;-79
2023/01/11 20:11:57;;;;;;;7.90;1.80;;;;;;;5.66;100.00;98236.00;15294883;19;20435;-79
2023/01/11 20:17:25;;;;;;;5.78;1.60;;;;;;;5.49;100.00;98232.97;14728972;19;10008306;-78
2023/01/11 20:22:52;;;;;;;6.90;1.55;;;;;;;5.45;100.00;98239.59;15307829;19;20018;-78
2023/01/11 20:28:19;;;;;;;5.78;1.60;;;;;;;5.46;100.00;98240.44;15282715;19;20028;-75
2023/01/11 20:33:46;;;;;;;5.35;1.45;;;;;;;5.34;100.00;98250.38;15288507;19;20024;-77
2023/01/11 20:39:12;;;;;;;6.43;1.48;;;;;;;5.41;100.00;98254.19;15290175;19;20078;-76
2023/01/11 20:44:37;;;;;;;8.73;1.50;;;;;;;5.55;100.00;98256.50;15282213;19;20017;-77
2023/01/11 20:50:16;;;;;;;5.93;1.60;;;;;;;5.59;100.00;98245.53;15288225;19;20635;-77
2023/01/11 20:55:49;;;;;;;8.83;1.40;;;;;;;5.50;100.00;98240.03;15286727;19;20070;-75
2023/01/11 21:01:21;;;;;;;6.78;1.33;;;;;;;5.43;100.00;98233.53;15279129;19;20021;-75
2023/01/11 21:06:49;;;;;;;6.78;1.58;;;;;;;5.44;100.00;98227.22;15267933;19;20015;-76
2023/01/11 21:12:16;;;;;;;5.53;1.48;;;;;;;5.43;100.00;98214.81;15287488;19;20014;-75
2023/01/11 21:17:41;;;;;;;7.45;1.63;;;;;;;5.32;100.00;98214.91;15295244;19;20363;-76
2023/01/11 21:23:08;;;;;;;6.00;1.60;;;;;;;5.39;100.00;98210.72;15302378;19;20974;-77
2023/01/11 21:28:33;;;;;;;5.05;1.40;;;;;;;5.33;100.00;98195.25;15288583;19;20010;-77
2023/01/11 21:33:58;;;;;;;5.25;1.48;;;;;;;5.39;100.00;98213.38;15295799;19;20012;-77
2023/01/11 21:39:25;;;;;;;5.20;1.48;;;;;;;5.35;100.00;98206.66;15277000;19;20033;-77
2023/01/11 21:44:50;;;;;;;7.90;1.50;;;;;;;5.42;100.00;98213.13;15287703;19;20006;-76
2023/01/11 21:50:15;;;;;;;6.25;1.55;;;;;;;5.35;100.00;98220.84;15288462;19;20007;-77
2023/01/11 21:55:42;;;;;;;7.00;1.30;;;;;;;5.28;100.00;98222.34;15288352;19;20014;-77
2023/01/11 22:01:18;;;;;;;5.82;1.50;;;;;;;5.23;100.00;98225.41;15268961;19;20757;-77
2023/01/11 22:06:46;;;;;;;5.90;1.55;;;;;;;5.16;100.00;98228.75;15290384;19;20017;-76
2023/01/11 22:12:13;;;;;;;4.68;1.40;;;;;;;5.07;100.00;98241.88;15277895;19;20033;-76
2023/01/11 22:17:38;;;;;;;4.88;1.50;;;;;;;4.75;100.00;98264.16;15289000;19;20022;-76
2023/01/11 22:23:03;;;;;;;6.45;1.75;;;;;;;4.65;100.00;98267.69;15290594;19;20031;-76
2023/01/11 22:28:31;;;;;;;3.55;1.50;;;;;;;4.53;100.00;98269.59;15284594;19;20010;-75
2023/01/11 22:33:56;;;;;;;4.78;1.50;;;;;;;4.30;100.00;98267.81;15290505;19;20089;-75
2023/01/11 22:39:22;;;;;;;6.53;1.58;;;;;;;4.25;100.00;98275.38;15289363;19;20095;-75
2023/01/11 22:44:52;;;;;;;7.50;1.85;;;;;;;4.20;100.00;98272.22;15301954;19;20013;-74
2023/01/11 22:50:18;;;;;;;6.00;1.80;;;;;;;4.13;100.00;98266.53;15304510;19;20043;-75
2023/01/11 22:55:42;;;;;;;6.30;1.77;;;;;;;4.16;100.00;98257.44;15286539;19;20369;-75
2023/01/11 23:01:24;;;;;;;4.38;1.60;;;;;;;4.20;100.00;98261.53;15283746;19;20054;-75
2023/01/11 23:06:49;;;;;;;5.68;1.65;;;;;;;4.26;100.00;98258.41;15284719;19;20077;-75
2023/01/11 23:17:55;;;;;;;4.93;1.48;;;;;;;4.09;100.00;98261.56;15279114;19;20020;-75
2023/01/11 23:23:20;;;;;;;5.85;1.50;;;;;;;4.01;100.00;98265.72;15285555;19;20047;-76
2023/01/11 23:28:46;;;;;;;6.43;1.67;;;;;;;3.91;100.00;98270.09;15282556;19;20029;-75
2023/01/11 23:34:14;;;;;;;6.15;1.60;;;;;;;3.82;100.00;98258.34;15286345;19;20826;-75
2023/01/11 23:39:39;;;;;;;6.18;1.70;;;;;;;3.71;100.00;98253.03;15286086;19;20078;-75
2023/01/11 23:45:04;;;;;;;7.90;1.70;;;;;;;3.65;100.00;98254.34;15285672;19;20018;-75
2023/01/11 23:50:33;;;;;;;4.88;1.50;;;;;;;3.70;100.00;98268.16;15277593;19;20031;-75
2023/01/11 23:56:02;;;;;;;4.50;1.67;;;;;;;3.96;100.00;98261.72;15285040;19;20497;-75
